Time;durP1;ratioP1;P1;durP2;ratioP2;P2;SDS_P1;SDS_P2;PMS_P1;PMS_P2;Temp;Humidity;BMP_temperature;BMP_pressure;BME280_temperature;BME280_humidity;BME280_pressure;Samples;Min_cycle;Max_cycle;Signal;HPM_P1;HPM_P2
2021/06/09 00:01:59;;;;;;;22.20;20.10;;;17.60;99.90;;;;;;5002594;28;20217;-60
2021/06/09 00:04:24;;;;;;;23.57;21.13;;;17.50;99.90;;;;;;5007649;28;20182;-61
2021/06/09 00:06:50;;;;;;;21.40;19.30;;;17.50;99.90;;;;;;5003660;28;20999;-61
2021/06/09 00:09:16;;;;;;;21.73;19.73;;;17.40;99.90;;;;;;4993301;28;20190;-61
2021/06/09 00:11:42;;;;;;;23.23;21.03;;;17.50;99.90;;;;;;5000352;28;20341;-61
2021/06/09 00:14:08;;;;;;;22.43;20.33;;;17.60;99.90;;;;;;5001158;28;20188;-61
2021/06/09 00:16:34;;;;;;;22.60;20.30;;;17.40;99.90;;;;;;4995126;28;20475;-60
2021/06/09 00:19:00;;;;;;;23.38;21.05;;;17.30;99.90;;;;;;4988906;28;20784;-60
2021/06/09 00:21:26;;;;;;;23.67;21.33;;;17.40;99.90;;;;;;4989288;28;20184;-60
2021/06/09 00:23:52;;;;;;;24.00;21.60;;;17.20;99.90;;;;;;4996326;28;20187;-60
2021/06/09 00:26:21;;;;;;;24.67;21.50;;;17.20;99.90;;;;;;4995292;28;20215;-60
2021/06/09 00:28:47;;;;;;;23.55;21.48;;;17.00;99.90;;;;;;4993043;28;20195;-60
2021/06/09 00:31:13;;;;;;;24.27;21.77;;;17.00;99.90;;;;;;5002669;28;20187;-60
2021/06/09 00:33:39;;;;;;;27.30;24.60;;;17.20;99.90;;;;;;4994934;28;20557;-60
2021/06/09 00:36:05;;;;;;;24.70;21.87;;;17.20;99.90;;;;;;4999122;28;20556;-60
2021/06/09 00:38:31;;;;;;;24.67;22.30;;;17.10;99.90;;;;;;4993110;28;20191;-60
2021/06/09 00:40:58;;;;;;;24.83;22.42;;;17.20;99.90;;;;;;4991700;28;20466;-60
2021/06/09 00:43:31;;;;;;;22.85;20.65;;;17.10;99.90;;;;;;5000529;28;20409;-61
2021/06/09 00:46:01;;;;;;;24.30;21.95;;;17.30;99.90;;;;;;4993089;28;20215;-61
2021/06/09 00:48:30;;;;;;;23.88;21.58;;;17.30;99.90;;;;;;4992091;28;20282;-60
2021/06/09 00:51:04;;;;;;;23.92;21.73;;;17.20;99.90;;;;;;5001527;28;20190;-61
2021/06/09 00:56:07;;;;;;;21.88;19.67;;;17.10;99.90;;;;;;5001381;28;20223;-60
2021/06/09 00:58:33;;;;;;;21.98;19.88;;;16.90;99.90;;;;;;5005111;28;20183;-61
2021/06/09 01:01:00;;;;;;;22.73;20.52;;;16.90;99.90;;;;;;5002880;28;20180;-61
2021/06/09 01:03:26;;;;;;;23.27;21.08;;;16.90;99.90;;;;;;5000916;28;20257;-61
2021/06/09 01:05:52;;;;;;;22.20;20.02;;;17.10;99.90;;;;;;4992374;28;20281;-60
2021/06/09 01:08:18;;;;;;;22.57;20.37;;;16.90;99.90;;;;;;5001286;28;20190;-61
2021/06/09 01:10:48;;;;;;;23.67;20.50;;;16.90;99.90;;;;;;5004966;28;20533;-60
2021/06/09 01:13:15;;;;;;;22.15;20.15;;;17.00;99.90;;;;;;4999607;28;20184;-60
2021/06/09 01:15:44;;;;;;;22.15;20.15;;;17.10;99.90;;;;;;4993738;28;20768;-61
2021/06/09 01:18:10;;;;;;;21.55;19.65;;;17.10;99.90;;;;;;4992113;28;20699;-60
2021/06/09 01:20:36;;;;;;;22.50;20.40;;;17.20;99.90;;;;;;4993837;28;20177;-60
2021/06/09 01:23:04;;;;;;;20.67;18.80;;;17.10;99.90;;;;;;4999141;28;20939;-60
2021/06/09 01:25:30;;;;;;;21.30;19.23;;;17.00;99.90;;;;;;5002120;28;20245;-60
2021/06/09 01:27:56;;;;;;;20.88;18.98;;;17.20;99.90;;;;;;4995272;28;20187;-60
2021/06/09 01:30:21;;;;;;;22.37;20.17;;;16.80;99.90;;;;;;5005183;28;20192;-60
2021/06/09 01:32:48;;;;;;;22.50;20.37;;;17.00;99.90;;;;;;5004320;28;20207;-60
2021/06/09 01:35:15;;;;;;;27.10;24.63;;;16.90;99.90;;;;;;5005704;28;20191;-61
2021/06/09 01:37:41;;;;;;;27.08;24.38;;;17.20;99.90;;;;;;5000441;28;20549;-60
2021/06/09 01:40:10;;;;;;;26.17;23.25;;;17.10;99.90;;;;;;4994129;28;20180;-60
2021/06/09 01:42:36;;;;;;;22.13;20.13;;;17.10;99.90;;;;;;4991361;28;20189;-60
2021/06/09 01:45:04;;;;;;;20.70;18.80;;;17.00;99.90;;;;;;4991527;28;20211;-60
2021/06/09 01:47:29;;;;;;;21.92;19.83;;;16.90;99.90;;;;;;4999483;28;20214;-61
2021/06/09 01:49:55;;;;;;;21.30;19.40;;;17.10;99.90;;;;;;4995612;28;20199;-61
2021/06/09 01:52:21;;;;;;;22.40;20.40;;;17.10;99.90;;;;;;5003064;28;20191;-61
2021/06/09 01:54:47;;;;;;;21.43;19.47;;;17.20;99.90;;;;;;5010207;28;20230;-60
2021/06/09 01:57:14;;;;;;;22.20;20.02;;;17.10;99.90;;;;;;5005954;28;20486;-60
2021/06/09 01:59:42;;;;;;;20.73;18.90;;;17.10;99.90;;;;;;4992560;28;20183;-60
2021/06/09 02:02:09;;;;;;;21.83;19.83;;;17.10;99.90;;;;;;4993513;28;20552;-60
2021/06/09 02:04:35;;;;;;;20.27;18.30;;;17.20;99.90;;;;;;5005140;28;20191;-61
2021/06/09 02:07:00;;;;;;;21.00;19.10;;;17.00;99.90;;;;;;4992138;28;20207;-61
2021/06/09 02:09:28;;;;;;;20.23;18.27;;;17.10;99.90;;;;;;5002549;28;20213;-61
2021/06/09 02:11:54;;;;;;;21.10;19.00;;;17.10;99.90;;;;;;5008593;28;20193;-61
2021/06/09 02:14:20;;;;;;;23.33;21.07;;;17.10;99.90;;;;;;5003204;28;20179;-61
2021/06/09 02:16:48;;;;;;;19.92;18.13;;;17.30;99.90;;;;;;4991199;28;20466;-61
2021/06/09 02:19:14;;;;;;;18.90;17.10;;;17.20;99.90;;;;;;4991748;28;20198;-61
2021/06/09 02:21:41;;;;;;;21.88;19.77;;;17.20;99.90;;;;;;4991205;28;20184;-61
2021/06/09 02:24:08;;;;;;;20.02;18.23;;;17.10;99.90;;;;;;4990778;28;20187;-61
2021/06/09 02:26:36;;;;;;;19.98;18.08;;;17.10;99.90;;;;;;4993434;28;20215;-61
2021/06/09 02:29:03;;;;;;;20.65;18.65;;;17.00;99.90;;;;;;4992400;28;20187;-61
2021/06/09 02:31:29;;;;;;;23.02;20.83;;;17.00;99.90;;;;;;4997602;28;20187;-61
2021/06/09 02:33:56;;;;;;;20.50;18.50;;;17.00;99.90;;;;;;4984490;28;20209;-61
2021/06/09 02:36:22;;;;;;;21.88;19.60;;;16.90;99.90;;;;;;5004923;28;20466;-61
2021/06/09 02:38:49;;;;;;;22.35;20.25;;;17.20;99.90;;;;;;4992458;28;20191;-61
2021/06/09 02:41:16;;;;;;;21.83;19.70;;;17.10;99.90;;;;;;5001606;28;20206;-61
2021/06/09 02:43:42;;;;;;;21.85;19.88;;;17.10;99.90;;;;;;5001212;28;20190;-61
2021/06/09 02:46:08;;;;;;;23.30;21.17;;;17.10;99.90;;;;;;5016981;28;20268;-61
2021/06/09 02:48:38;;;;;;;21.53;19.50;;;17.40;99.90;;;;;;5002827;28;20183;-61
2021/06/09 02:51:04;;;;;;;21.33;19.33;;;17.20;99.90;;;;;;4990194;28;20723;-61
2021/06/09 02:53:38;;;;;;;21.98;19.88;;;16.90;99.90;;;;;;4996856;28;20191;-61
2021/06/09 02:56:24;;;;;;;23.15;20.95;;;17.20;99.90;;;;;;5001911;28;20221;-61
2021/06/09 02:59:20;;;;;;;21.17;19.17;;;17.00;99.90;;;;;;4992925;28;20238;-61
2021/06/09 03:02:02;;;;;;;21.50;19.40;;;17.00;99.90;;;;;;4989604;28;20176;-61
2021/06/09 03:04:45;;;;;;;22.48;20.38;;;17.10;99.90;;;;;;4999088;28;20184;-61
2021/06/09 03:07:48;;;;;;;21.23;19.23;;;17.00;99.90;;;;;;4982094;28;20740;-61
2021/06/09 03:10:26;;;;;;;23.35;21.15;;;16.80;99.90;;;;;;4991513;28;20187;-61
2021/06/09 03:13:24;;;;;;;23.35;21.15;;;16.90;99.90;;;;;;5004027;28;20179;-62
2021/06/09 03:16:02;;;;;;;19.65;17.85;;;16.90;99.90;;;;;;4999164;28;20221;-61
2021/06/09 03:18:36;;;;;;;22.50;20.25;;;17.00;99.90;;;;;;4991055;28;20179;-61
2021/06/09 03:21:14;;;;;;;22.02;19.95;;;17.30;99.90;;;;;;5000136;28;20190;-62
2021/06/09 03:24:07;;;;;;;22.75;20.40;;;17.00;99.90;;;;;;4999793;28;20195;-61
2021/06/09 03:26:47;;;;;;;21.58;19.55;;;17.20;99.90;;;;;;4989515;28;20295;-61
2021/06/09 03:30:08;;;;;;;20.58;18.67;;;17.20;99.90;;;;;;4985382;28;20562;-61
2021/06/09 03:32:38;;;;;;;21.30;19.27;;;17.10;99.90;;;;;;5003176;28;20700;-62
2021/06/09 03:35:10;;;;;;;21.10;19.20;;;17.20;99.90;;;;;;4986055;28;20605;-62
2021/06/09 03:37:40;;;;;;;22.98;20.60;;;17.20;99.90;;;;;;4993783;28;20270;-61
2021/06/09 03:40:09;;;;;;;21.60;19.60;;;17.20;99.90;;;;;;4986085;28;20179;-61
2021/06/09 03:42:38;;;;;;;21.13;19.13;;;17.20;99.90;;;;;;4989494;28;20585;-62
2021/06/09 03:45:05;;;;;;;21.33;19.33;;;17.00;99.90;;;;;;4989284;28;20657;-61
2021/06/09 03:47:32;;;;;;;21.60;19.60;;;17.30;99.90;;;;;;4990556;28;20215;-61
2021/06/09 03:50:00;;;;;;;20.58;18.70;;;17.00;99.90;;;;;;4991756;28;20724;-62
2021/06/09 03:52:26;;;;;;;21.48;19.52;;;17.20;99.90;;;;;;4998681;28;20205;-61
2021/06/09 03:54:55;;;;;;;20.77;18.88;;;17.20;99.90;;;;;;5006732;28;20179;-62
2021/06/09 03:57:23;;;;;;;19.38;17.45;;;17.20;99.90;;;;;;4991328;28;20260;-62
2021/06/09 03:59:51;;;;;;;18.77;17.08;;;17.20;99.90;;;;;;5000290;28;20607;-61
2021/06/09 04:02:18;;;;;;;21.60;19.60;;;17.20;99.90;;;;;;4989995;28;20553;-61
2021/06/09 04:04:45;;;;;;;19.95;18.15;;;17.10;99.90;;;;;;4999105;28;20187;-62
2021/06/09 04:07:12;;;;;;;21.08;19.17;;;17.30;99.90;;;;;;4995975;28;20578;-61
2021/06/09 04:09:40;;;;;;;21.20;19.20;;;17.30;99.90;;;;;;5000972;28;20203;-61
2021/06/09 04:12:09;;;;;;;20.02;18.13;;;17.20;99.90;;;;;;4988878;28;20187;-61
2021/06/09 04:14:43;;;;;;;20.23;18.35;;;16.90;99.90;;;;;;4988976;28;20219;-61
2021/06/09 04:17:09;;;;;;;20.25;18.35;;;17.40;99.90;;;;;;4999420;28;20305;-61
2021/06/09 04:19:40;;;;;;;21.88;19.73;;;17.60;99.90;;;;;;4993532;28;20179;-61
2021/06/09 04:22:06;;;;;;;18.63;16.83;;;17.50;99.90;;;;;;5008105;28;20175;-62
2021/06/09 04:24:33;;;;;;;19.95;18.15;;;17.10;99.90;;;;;;4998953;28;20182;-62
2021/06/09 04:27:04;;;;;;;21.05;18.95;;;17.10;99.90;;;;;;5003157;28;20734;-61
2021/06/09 04:29:31;;;;;;;19.75;17.85;;;17.40;99.90;;;;;;4997525;28;20562;-61
2021/06/09 04:31:56;;;;;;;19.35;17.55;;;17.50;99.90;;;;;;4995642;28;20684;-61
2021/06/09 04:34:22;;;;;;;19.63;17.63;;;17.50;99.90;;;;;;4998697;28;20207;-61
2021/06/09 04:36:54;;;;;;;23.27;20.97;;;17.60;99.90;;;;;;4991336;28;20821;-61
2021/06/09 04:39:19;;;;;;;20.65;18.80;;;17.50;99.90;;;;;;4990027;28;20187;-61
2021/06/09 04:41:46;;;;;;;21.37;19.37;;;17.60;99.90;;;;;;4997462;28;20189;-61
2021/06/09 04:44:14;;;;;;;22.38;20.30;;;17.60;99.90;;;;;;4995489;28;20193;-61
2021/06/09 04:46:41;;;;;;;20.83;18.83;;;17.50;99.90;;;;;;4997623;28;20210;-61
2021/06/09 04:49:07;;;;;;;19.83;17.95;;;17.50;99.90;;;;;;4992396;28;20190;-62
2021/06/09 04:51:36;;;;;;;19.60;17.67;;;17.80;99.90;;;;;;4998229;28;20548;-61
2021/06/09 04:54:04;;;;;;;21.60;19.40;;;17.80;99.90;;;;;;5008886;28;20649;-61
2021/06/09 04:56:35;;;;;;;19.58;17.70;;;17.90;99.90;;;;;;5000291;28;20218;-62
2021/06/09 04:59:05;;;;;;;21.63;19.42;;;17.60;99.90;;;;;;5002820;28;20180;-61
2021/06/09 05:01:31;;;;;;;19.40;17.60;;;17.70;99.90;;;;;;4987146;28;20187;-62
2021/06/09 05:03:59;;;;;;;21.00;19.00;;;17.80;99.90;;;;;;4992978;28;20183;-60
2021/06/09 05:06:26;;;;;;;21.25;19.05;;;17.90;99.90;;;;;;4995455;28;20210;-59
2021/06/09 05:08:53;;;;;;;22.05;19.80;;;18.00;99.90;;;;;;4991327;28;20661;-58
2021/06/09 05:11:39;;;;;;;20.25;18.45;;;18.10;99.90;;;;;;4991931;28;20214;-59
2021/06/09 05:14:32;;;;;;;20.63;18.60;;;18.30;99.90;;;;;;4989167;28;20185;-59
2021/06/09 05:17:01;;;;;;;19.27;17.38;;;18.40;99.90;;;;;;4984472;28;20755;-59
2021/06/09 05:19:30;;;;;;;19.90;18.10;;;18.40;99.90;;;;;;4990631;28;20186;-59
2021/06/09 05:22:05;;;;;;;20.60;18.60;;;18.50;99.90;;;;;;4996911;28;20222;-59
2021/06/09 05:24:33;;;;;;;21.05;19.10;;;18.50;99.90;;;;;;4992321;28;20180;-60
2021/06/09 05:27:00;;;;;;;20.55;18.65;;;18.50;99.90;;;;;;4997258;28;20216;-58
2021/06/09 05:29:28;;;;;;;22.35;20.38;;;18.80;99.90;;;;;;4996388;28;20550;-59
2021/06/09 05:31:54;;;;;;;21.40;19.30;;;18.70;99.90;;;;;;4992882;28;20208;-60
2021/06/09 05:34:22;;;;;;;20.55;18.55;;;18.70;99.90;;;;;;4997768;28;20214;-59
2021/06/09 05:36:48;;;;;;;21.85;19.75;;;18.70;99.90;;;;;;5000777;28;20217;-60
2021/06/09 05:39:21;;;;;;;21.95;19.95;;;18.80;99.90;;;;;;4998978;28;20210;-60
2021/06/09 05:41:47;;;;;;;19.83;17.85;;;18.80;99.90;;;;;;4994151;28;20184;-60
2021/06/09 05:44:17;;;;;;;20.42;18.55;;;19.10;99.90;;;;;;5002425;28;20194;-60
2021/06/09 05:46:44;;;;;;;20.67;18.75;;;19.20;99.90;;;;;;4998242;28;20205;-60
2021/06/09 05:49:22;;;;;;;21.30;19.40;;;19.30;99.90;;;;;;4994483;28;20632;-60
2021/06/09 05:51:49;;;;;;;19.42;17.67;;;19.60;99.90;;;;;;4989905;28;20187;-59
2021/06/09 05:54:16;;;;;;;20.90;18.95;;;19.80;99.90;;;;;;4998690;28;20188;-58
2021/06/09 05:56:42;;;;;;;22.02;19.83;;;19.80;99.90;;;;;;4997366;28;20717;-58
2021/06/09 05:59:08;;;;;;;18.80;17.10;;;20.20;99.90;;;;;;4992204;28;20203;-58
2021/06/09 06:01:34;;;;;;;19.35;17.75;;;20.20;99.90;;;;;;4989718;28;20203;-57
2021/06/09 06:04:02;;;;;;;19.30;17.60;;;20.20;99.90;;;;;;4996436;28;20354;-58
2021/06/09 06:06:28;;;;;;;19.33;17.63;;;20.40;99.90;;;;;;4994716;28;20207;-58
2021/06/09 06:08:54;;;;;;;18.55;16.95;;;20.80;99.90;;;;;;4995455;28;20671;-58
2021/06/09 06:11:22;;;;;;;19.00;17.30;;;20.70;99.90;;;;;;4993064;28;20192;-59
2021/06/09 06:13:47;;;;;;;20.55;18.65;;;20.80;99.90;;;;;;4988991;28;20290;-58
2021/06/09 06:16:19;;;;;;;17.33;15.93;;;20.70;99.90;;;;;;5004099;28;20381;-59
2021/06/09 06:18:46;;;;;;;18.52;16.92;;;21.00;99.90;;;;;;4991755;28;20439;-59
2021/06/09 06:21:14;;;;;;;18.80;17.00;;;21.10;99.90;;;;;;4989420;28;20215;-60
2021/06/09 06:23:40;;;;;;;18.15;16.45;;;21.00;99.90;;;;;;4984246;28;20283;-60
2021/06/09 06:26:07;;;;;;;17.98;16.38;;;21.20;99.90;;;;;;4993628;28;20202;-59
2021/06/09 06:28:33;;;;;;;17.40;16.00;;;21.40;99.90;;;;;;4988242;28;20191;-60
2021/06/09 06:31:01;;;;;;;17.60;15.90;;;21.60;99.90;;;;;;4993663;28;20804;-56
2021/06/09 06:33:27;;;;;;;17.10;15.60;;;21.70;99.90;;;;;;5006374;28;20288;-58
2021/06/09 06:35:56;;;;;;;17.42;15.70;;;21.90;99.90;;;;;;4998262;28;20692;-58
2021/06/09 06:38:22;;;;;;;17.08;15.63;;;22.10;99.90;;;;;;4991235;28;20682;-59
2021/06/09 06:40:49;;;;;;;16.73;15.33;;;22.20;99.90;;;;;;5009471;28;20188;-59
2021/06/09 06:43:16;;;;;;;16.08;14.57;;;22.40;99.90;;;;;;4997978;28;20439;-58
2021/06/09 06:45:43;;;;;;;16.97;15.57;;;22.50;99.90;;;;;;4997101;28;20601;-58
2021/06/09 06:48:09;;;;;;;15.10;13.75;;;22.50;99.90;;;;;;4994900;28;20492;-58
2021/06/09 06:50:37;;;;;;;17.85;16.25;;;22.60;99.90;;;;;;4987814;28;20194;-59
2021/06/09 06:53:07;;;;;;;15.48;14.18;;;22.60;99.90;;;;;;4999466;28;20179;-59
2021/06/09 06:55:33;;;;;;;14.43;13.05;;;22.70;99.90;;;;;;4994902;28;20183;-59
2021/06/09 06:57:59;;;;;;;14.30;13.20;;;22.80;99.90;;;;;;4991716;28;20572;-54
2021/06/09 07:00:26;;;;;;;14.25;13.13;;;22.80;99.90;;;;;;4990905;28;20436;-56
2021/06/09 07:02:57;;;;;;;14.77;13.50;;;22.90;99.90;;;;;;4990436;28;20748;-57
2021/06/09 07:05:26;;;;;;;14.53;13.33;;;22.80;99.90;;;;;;5001269;28;20599;-57
2021/06/09 07:07:54;;;;;;;15.60;14.30;;;22.90;99.90;;;;;;4988760;28;20438;-57
2021/06/09 07:10:21;;;;;;;14.73;13.60;;;22.90;99.90;;;;;;4989394;28;20512;-58
2021/06/09 07:12:48;;;;;;;15.47;14.17;;;22.80;99.90;;;;;;4989241;28;20982;-58
2021/06/09 07:15:19;;;;;;;14.90;13.60;;;23.10;99.90;;;;;;4987866;28;20450;-57
2021/06/09 07:17:52;;;;;;;15.77;14.47;;;23.50;99.90;;;;;;4996941;28;20528;-58
2021/06/09 07:20:23;;;;;;;15.07;13.80;;;24.00;99.90;;;;;;4993268;28;20447;-57
2021/06/09 07:22:50;;;;;;;14.80;13.60;;;24.60;99.90;;;;;;4995286;28;20443;-60
2021/06/09 07:25:17;;;;;;;13.33;12.27;;;25.50;99.20;;;;;;4990938;28;20523;-58
2021/06/09 07:27:47;;;;;;;13.00;12.00;;;26.80;97.00;;;;;;4996390;28;20468;-58
2021/06/09 07:30:16;;;;;;;13.33;12.03;;;28.40;93.20;;;;;;4987927;28;20460;-58
2021/06/09 07:32:44;;;;;;;14.40;12.93;;;29.10;91.40;;;;;;4993297;28;20453;-59
2021/06/09 07:35:11;;;;;;;13.70;12.57;;;30.00;87.40;;;;;;4988774;28;20449;-58
2021/06/09 07:37:41;;;;;;;12.87;11.87;;;30.90;82.80;;;;;;4988300;28;20836;-58
2021/06/09 07:40:08;;;;;;;13.17;12.17;;;31.40;81.60;;;;;;4985371;28;20482;-58
2021/06/09 07:42:35;;;;;;;13.97;12.90;;;32.90;76.10;;;;;;4981711;28;20447;-58
2021/06/09 07:45:06;;;;;;;15.00;13.90;;;32.80;73.50;;;;;;4988010;28;20474;-58
2021/06/09 07:47:33;;;;;;;15.37;14.17;;;32.40;72.50;;;;;;5016526;28;20462;-59
2021/06/09 07:50:01;;;;;;;14.33;13.30;;;31.60;74.40;;;;;;4996028;28;20458;-59
2021/06/09 07:52:28;;;;;;;15.60;14.30;;;31.90;73.10;;;;;;4998593;28;20817;-58
2021/06/09 07:54:57;;;;;;;19.30;17.20;;;30.90;76.30;;;;;;4989979;28;20448;-57
2021/06/09 07:57:26;;;;;;;15.60;14.50;;;29.40;80.40;;;;;;4987922;28;20514;-56
2021/06/09 07:59:52;;;;;;;18.50;16.60;;;28.50;84.20;;;;;;4991769;28;20473;-56
2021/06/09 08:02:19;;;;;;;16.77;15.20;;;29.70;83.10;;;;;;4990018;28;20786;-60
2021/06/09 08:04:45;;;;;;;18.13;16.33;;;30.60;79.40;;;;;;4997609;28;20532;-58
2021/06/09 08:07:11;;;;;;;16.17;14.73;;;30.80;78.60;;;;;;4986673;28;20495;-58
2021/06/09 08:09:37;;;;;;;15.80;14.60;;;31.40;77.20;;;;;;4991327;28;20461;-56
2021/06/09 08:12:05;;;;;;;15.70;14.50;;;30.90;76.30;;;;;;4985282;28;20520;-58
2021/06/09 08:14:32;;;;;;;17.60;16.00;;;31.20;76.90;;;;;;5001277;28;20588;-58
2021/06/09 08:16:58;;;;;;;15.13;13.93;;;31.70;74.30;;;;;;4992504;28;20481;-57
2021/06/09 08:19:24;;;;;;;19.60;17.90;;;32.70;72.00;;;;;;4993673;28;20453;-58
2021/06/09 08:21:50;;;;;;;17.93;16.43;;;32.80;70.50;;;;;;5000857;28;20551;-59
2021/06/09 08:24:16;;;;;;;17.70;16.13;;;32.10;71.00;;;;;;4988658;28;20478;-59
2021/06/09 08:26:42;;;;;;;16.80;15.50;;;31.50;74.60;;;;;;4984224;28;20266;-58
2021/06/09 08:29:08;;;;;;;19.00;17.47;;;31.70;73.60;;;;;;5004463;28;20194;-58
2021/06/09 08:31:36;;;;;;;17.47;16.07;;;31.50;72.20;;;;;;4996305;28;20457;-58
2021/06/09 08:34:03;;;;;;;17.50;16.20;;;31.50;74.00;;;;;;4989212;28;20474;-57
2021/06/09 08:36:29;;;;;;;18.60;17.10;;;31.60;73.20;;;;;;4994169;28;20560;-59
2021/06/09 08:38:57;;;;;;;16.60;15.10;;;31.50;73.70;;;;;;4990754;28;20498;-58
2021/06/09 08:41:27;;;;;;;18.30;16.80;;;31.60;73.90;;;;;;4999796;28;20461;-58
2021/06/09 08:43:53;;;;;;;19.13;17.23;;;31.60;73.70;;;;;;4993208;28;20445;-58
2021/06/09 08:46:19;;;;;;;16.30;15.00;;;31.30;72.30;;;;;;4992885;28;20456;-58
2021/06/09 08:48:46;;;;;;;24.07;22.17;;;30.90;75.70;;;;;;4989017;28;20448;-59
2021/06/09 08:51:14;;;;;;;16.53;15.23;;;31.00;76.70;;;;;;4993584;28;20447;-60
2021/06/09 08:53:45;;;;;;;17.53;16.13;;;31.70;74.70;;;;;;4996402;28;20511;-59
2021/06/09 08:56:11;;;;;;;17.77;16.37;;;31.20;74.70;;;;;;4989472;28;20473;-60
2021/06/09 08:58:37;;;;;;;18.40;16.60;;;32.30;72.30;;;;;;5008672;28;20446;-60
2021/06/09 09:01:06;;;;;;;17.67;16.37;;;33.20;69.00;;;;;;4990966;28;20438;-60
2021/06/09 09:03:33;;;;;;;18.40;16.70;;;33.60;67.70;;;;;;4998155;28;20183;-60
2021/06/09 09:05:59;;;;;;;19.30;17.83;;;33.50;67.70;;;;;;4987726;28;20789;-60
2021/06/09 09:08:24;;;;;;;18.50;17.10;;;33.70;65.30;;;;;;4994095;28;20512;-60
2021/06/09 09:10:50;;;;;;;18.73;17.20;;;32.90;67.70;;;;;;4998307;28;20195;-59
2021/06/09 09:13:16;;;;;;;19.03;17.53;;;32.60;68.80;;;;;;4990398;28;20191;-61
2021/06/09 09:15:41;;;;;;;18.97;17.30;;;32.80;66.80;;;;;;4997910;28;20264;-59
2021/06/09 09:18:10;;;;;;;19.07;17.57;;;33.60;66.10;;;;;;4993372;28;20749;-61
2021/06/09 09:20:40;;;;;;;18.43;17.03;;;33.50;66.10;;;;;;4990450;28;20599;-59
2021/06/09 09:23:28;;;;;;;18.57;17.07;;;33.70;64.70;;;;;;4986762;28;20472;-59
2021/06/09 09:25:56;;;;;;;18.77;17.27;;;33.80;64.60;;;;;;4989129;28;20466;-60
2021/06/09 09:28:30;;;;;;;18.80;17.40;;;33.20;65.60;;;;;;4994463;28;20445;-60
2021/06/09 09:31:18;;;;;;;18.50;16.83;;;33.50;63.30;;;;;;4992098;28;20854;-59
2021/06/09 09:33:46;;;;;;;18.73;17.13;;;34.60;63.00;;;;;;4998894;28;20465;-60
2021/06/09 09:36:30;;;;;;;19.27;17.67;;;35.70;59.60;;;;;;5004279;28;20818;-61
2021/06/09 09:38:59;;;;;;;17.30;16.00;;;35.10;59.80;;;;;;4991398;28;20461;-61
2021/06/09 09:41:31;;;;;;;17.67;16.47;;;35.40;59.20;;;;;;5006558;28;20442;-61
2021/06/09 09:44:07;;;;;;;17.83;16.43;;;35.00;59.40;;;;;;4991877;28;20493;-60
2021/06/09 09:46:50;;;;;;;19.40;17.77;;;34.20;61.50;;;;;;4990942;28;20462;-57
2021/06/09 09:49:18;;;;;;;16.03;14.93;;;34.20;60.90;;;;;;4986877;28;20469;-58
2021/06/09 09:51:53;;;;;;;16.57;15.30;;;34.40;60.00;;;;;;4997643;28;20882;-58
2021/06/09 09:54:30;;;;;;;18.80;17.10;;;34.90;58.30;;;;;;4981499;28;20496;-59
2021/06/09 09:56:57;;;;;;;18.37;16.83;;;35.30;58.20;;;;;;5000022;28;20553;-60
2021/06/09 09:59:26;;;;;;;18.90;17.30;;;35.30;58.00;;;;;;4996345;28;20434;-60
2021/06/09 10:01:54;;;;;;;17.53;16.23;;;35.70;57.60;;;;;;4991673;28;20999;-60
2021/06/09 10:04:20;;;;;;;18.23;16.60;;;36.00;57.10;;;;;;4987605;28;20451;-59
2021/06/09 10:06:50;;;;;;;19.20;17.80;;;35.50;57.70;;;;;;4987077;28;20497;-59
2021/06/09 10:09:18;;;;;;;17.93;16.53;;;34.80;57.70;;;;;;4987764;28;20545;-59
2021/06/09 10:12:11;;;;;;;19.90;18.40;;;35.40;57.70;;;;;;5011857;28;20444;-59
2021/06/09 10:14:49;;;;;;;19.77;18.17;;;35.30;56.70;;;;;;5001950;28;20449;-60
2021/06/09 10:17:16;;;;;;;16.67;15.47;;;35.70;56.90;;;;;;4988307;28;20454;-60
2021/06/09 10:19:56;;;;;;;18.77;17.13;;;35.40;57.80;;;;;;4993294;28;20822;-60
2021/06/09 10:22:24;;;;;;;17.97;16.57;;;34.80;57.40;;;;;;4995640;28;20437;-60
2021/06/09 10:24:57;;;;;;;17.47;16.07;;;34.60;58.30;;;;;;4993524;28;20538;-60
2021/06/09 10:27:51;;;;;;;17.03;15.70;;;35.00;58.60;;;;;;4992799;28;20462;-60
2021/06/09 10:30:16;;;;;;;20.93;19.17;;;35.60;56.90;;;;;;4985271;28;20442;-60
2021/06/09 10:32:44;;;;;;;19.23;17.83;;;35.30;57.10;;;;;;4984430;28;20454;-59
2021/06/09 10:35:09;;;;;;;20.20;18.60;;;35.60;56.10;;;;;;4987917;28;20526;-60
2021/06/09 10:37:36;;;;;;;19.43;17.83;;;35.80;55.20;;;;;;4989182;28;20541;-60
2021/06/09 10:40:03;;;;;;;17.70;16.40;;;35.80;55.40;;;;;;4994228;28;20172;-60
2021/06/09 10:42:29;;;;;;;19.07;17.67;;;36.00;55.10;;;;;;4989492;28;20450;-60
2021/06/09 10:44:57;;;;;;;20.30;18.80;;;35.60;55.40;;;;;;5001926;28;20445;-60
2021/06/09 10:47:31;;;;;;;18.43;17.13;;;35.40;55.50;;;;;;4994703;28;20470;-60
2021/06/09 10:49:59;;;;;;;18.80;17.50;;;35.50;55.90;;;;;;5005040;28;21049;-60
2021/06/09 10:52:26;;;;;;;20.43;18.83;;;35.30;56.50;;;;;;4989318;28;20682;-60
2021/06/09 10:54:52;;;;;;;19.30;17.90;;;35.00;56.20;;;;;;4988026;28;20454;-60
2021/06/09 10:57:19;;;;;;;18.60;17.20;;;35.00;56.90;;;;;;4993047;28;20465;-61
2021/06/09 10:59:45;;;;;;;18.00;16.70;;;35.20;55.50;;;;;;4993183;28;20665;-60
2021/06/09 11:02:16;;;;;;;18.93;17.53;;;33.70;57.60;;;;;;4994060;28;21025;-60
2021/06/09 11:04:46;;;;;;;16.57;15.27;;;32.90;59.00;;;;;;4986980;28;20266;-60
2021/06/09 11:07:40;;;;;;;15.73;14.53;;;32.60;58.80;;;;;;5001846;28;20472;-60
2021/06/09 11:10:17;;;;;;;17.50;15.93;;;32.30;58.70;;;;;;4995027;28;20441;-60
2021/06/09 11:12:45;;;;;;;15.40;14.20;;;32.70;58.60;;;;;;4994133;28;20442;-59
2021/06/09 11:15:13;;;;;;;16.87;15.23;;;32.60;57.80;;;;;;4990128;28;20448;-59
2021/06/09 11:17:45;;;;;;;18.03;16.67;;;32.20;59.50;;;;;;4993727;28;20473;-59
2021/06/09 11:20:23;;;;;;;16.13;14.83;;;31.60;61.90;;;;;;5002916;28;20445;-59
2021/06/09 11:22:53;;;;;;;14.50;13.50;;;31.70;61.30;;;;;;5004949;28;21018;-59
2021/06/09 11:25:24;;;;;;;14.13;13.03;;;31.60;60.00;;;;;;4999025;28;20986;-61
2021/06/09 11:28:02;;;;;;;12.80;11.90;;;31.60;58.90;;;;;;4988370;28;20585;-61
2021/06/09 11:30:28;;;;;;;14.30;12.93;;;31.60;59.00;;;;;;4989338;28;20925;-60
2021/06/09 11:32:58;;;;;;;16.17;14.97;;;32.00;59.40;;;;;;4989832;28;20554;-58
2021/06/09 11:35:46;;;;;;;14.60;13.33;;;32.00;58.10;;;;;;4996646;28;20225;-58
2021/06/09 11:38:12;;;;;;;12.70;11.70;;;31.70;58.00;;;;;;4981259;28;20454;-59
2021/06/09 11:41:16;;;;;;;12.17;11.27;;;31.40;59.80;;;;;;4998444;28;20449;-59
2021/06/09 11:43:47;;;;;;;11.63;10.73;;;31.10;59.10;;;;;;5004594;28;20630;-60
2021/06/09 11:46:31;;;;;;;11.03;10.13;;;31.30;57.80;;;;;;4987826;28;20564;-59
2021/06/09 11:48:58;;;;;;;10.87;10.17;;;31.10;58.50;;;;;;4990267;28;20525;-60
2021/06/09 11:52:07;;;;;;;12.20;11.40;;;30.30;60.70;;;;;;4994201;28;20442;-60
2021/06/09 11:54:33;;;;;;;11.90;11.03;;;30.40;61.40;;;;;;4986566;28;20799;-59
2021/06/09 11:57:03;;;;;;;12.30;11.40;;;30.30;61.80;;;;;;4998713;28;20489;-59
2021/06/09 11:59:34;;;;;;;12.50;11.40;;;30.10;63.80;;;;;;4987919;28;20312;-60
2021/06/09 12:02:08;;;;;;;12.60;11.60;;;29.50;64.30;;;;;;4995064;28;20847;-60
2021/06/09 12:04:38;;;;;;;12.47;11.40;;;29.30;66.60;;;;;;4984859;28;20447;-59
2021/06/09 12:07:09;;;;;;;13.20;12.20;;;29.20;66.70;;;;;;4990040;28;21000;-60
2021/06/09 12:09:38;;;;;;;14.17;12.83;;;29.10;67.40;;;;;;4984805;28;20448;-59
2021/06/09 12:12:09;;;;;;;15.27;13.87;;;29.10;70.70;;;;;;4988208;28;20457;-59
2021/06/09 12:14:37;;;;;;;14.17;13.07;;;28.80;74.30;;;;;;4983577;28;20494;-59
2021/06/09 12:17:12;;;;;;;15.37;13.97;;;28.80;74.20;;;;;;4989372;28;20605;-62
2021/06/09 12:19:49;;;;;;;14.77;13.57;;;28.60;75.00;;;;;;4996824;28;20442;-62
2021/06/09 12:22:21;;;;;;;15.50;14.30;;;28.60;76.30;;;;;;4983410;28;20891;-61
2021/06/09 12:25:08;;;;;;;16.00;14.70;;;28.70;77.10;;;;;;4987802;28;20790;-62
2021/06/09 12:27:36;;;;;;;15.30;14.00;;;28.80;77.40;;;;;;4987783;28;20462;-57
2021/06/09 12:30:06;;;;;;;16.10;14.80;;;28.90;75.30;;;;;;4987657;28;20449;-61
2021/06/09 12:32:36;;;;;;;15.70;14.50;;;28.90;75.60;;;;;;4998160;28;20548;-61
2021/06/09 12:35:06;;;;;;;14.57;13.47;;;28.70;75.40;;;;;;4995222;28;20525;-59
2021/06/09 12:37:36;;;;;;;13.87;12.77;;;28.70;74.70;;;;;;4995147;28;20476;-58
2021/06/09 12:40:12;;;;;;;14.37;13.37;;;28.90;74.30;;;;;;4997500;28;20435;-58
2021/06/09 12:42:40;;;;;;;14.53;13.13;;;29.00;73.50;;;;;;4991715;28;20442;-59
2021/06/09 12:45:08;;;;;;;15.93;14.43;;;29.00;73.40;;;;;;4990119;28;20468;-59